Time;durP1;ratioP1;P1;durP2;ratioP2;P2;SDS_P1;SDS_P2;PMS_P1;PMS_P2;Temp;Humidity;BMP_temperature;BMP_pressure;BME280_temperature;BME280_humidity;BME280_pressure;Samples;Min_cycle;Max_cycle;Signal;HPM_P1;HPM_P2
2022/04/21 00:00:11;;;;;;;;;;;;;;;;;;5056464;28;19909;-44
2022/04/21 00:02:36;;;;;;;;;;;;;;;;;;5056189;28;19982;-44
2022/04/21 00:05:01;;;;;;;;;;;;;;;;;;5056270;28;19915;-43
2022/04/21 00:07:27;;;;;;;;;;;;;;;;;;5056041;28;19963;-43
2022/04/21 00:09:52;;;;;;;;;;;;;;;;;;5038056;28;19916;-44
2022/04/21 00:12:18;;;;;;;;;;;;;;;;;;5056213;28;19913;-43
2022/04/21 00:14:43;;;;;;;;;;;;;;;;;;5055457;28;19908;-43
2022/04/21 00:17:11;;;;;;;;;;;;;;;;;;5056014;28;19940;-43
2022/04/21 00:19:36;;;;;;;;;;;;;;;;;;5055658;28;19912;-43
2022/04/21 00:24:45;;;;;;;;;;;;;;;;;;5069131;22;20075;-43
2022/04/21 00:27:10;;;;;;;;;;;;;;;;;;5096066;28;19952;-43
2022/04/21 00:29:35;;;;;;;;;;;;;;;;;;5095789;28;19912;-43
2022/04/21 00:32:00;;;;;;;;;;;;;;;;;;5094777;28;19908;-43
2022/04/21 00:34:25;;;;;;;;;;;;;;;;;;5095960;28;19931;-44
2022/04/21 00:36:50;;;;;;;;;;;;;;;;;;5095815;28;19915;-43
2022/04/21 00:39:16;;;;;;;;;;;;;;;;;;5095907;28;20002;-43
2022/04/21 00:41:41;;;;;;;;;;;;;;;;;;5095540;28;19965;-43
2022/04/21 00:44:06;;;;;;;;;;;;;;;;;;5095690;28;19955;-43
2022/04/21 00:46:33;;;;;;;;;;;;;;;;;;5095652;28;19908;-43
2022/04/21 00:48:58;;;;;;;;;;;;;;;;;;5095705;28;19912;-42
2022/04/21 00:51:26;;;;;;;;;;;;;;;;;;5095417;28;20328;-45
2022/04/21 00:53:51;;;;;;;;;;;;;;;;;;5095424;28;19947;-42
2022/04/21 00:56:16;;;;;;;;;;;;;;;;;;5094858;28;19919;-42
2022/04/21 00:58:43;;;;;;;;;;;;;;;;;;5095556;28;20386;-45
2022/04/21 01:02:46;;;;;;;;;;;;;;;;;;5095815;28;19981;-42
2022/04/21 01:03:53;;;;;;;;;;;;;;;;;;5095361;28;19912;-41
2022/04/21 01:06:18;;;;;;;;;;;;;;;;;;5095349;28;19915;-43
2022/04/21 01:08:43;;;;;;;;;;;;;;;;;;5095165;28;19964;-42
2022/04/21 01:11:09;;;;;;;;;;;;;;;;;;5095098;28;19985;-42
2022/04/21 01:13:34;;;;;;;;;;;;;;;;;;5095216;28;20262;-43
2022/04/21 01:15:59;;;;;;;;;;;;;;;;;;5095146;28;19918;-43
2022/04/21 01:18:24;;;;;;;;;;;;;;;;;;5101750;28;19911;-43
2022/04/21 01:20:49;;;;;;;;;;;;;;;;;;5115098;28;20359;-44
2022/04/21 01:23:15;;;;;;;;;;;;;;;;;;5115176;28;20034;-44
2022/04/21 01:25:40;;;;;;;;;;;;;;;;;;5114983;28;20018;-42
2022/04/21 01:28:06;;;;;;;;;;;;;;;;;;5114961;28;19998;-44
2022/04/21 01:30:31;;;;;;;;;;;;;;;;;;5114929;28;19961;-44
2022/04/21 01:32:57;;;;;;;;;;;;;;;;;;5114754;28;19908;-44
2022/04/21 01:35:22;;;;;;;;;;;;;;;;;;5096962;28;19919;-44
2022/04/21 01:43:16;;;;;;;;;;;;;;;;;;5138989;27;20028;-43
2022/04/21 01:45:43;;;;;;;;;;;;;;;;;;5139910;27;19915;-43
2022/04/21 01:48:08;;;;;;;;;;;;;;;;;;5139860;27;20396;-43
2022/04/21 01:50:33;;;;;;;;;;;;;;;;;;5139743;27;20285;-43
2022/04/21 01:52:58;;;;;;;;;;;;;;;;;;5139324;27;19907;-43
2022/04/21 01:55:23;;;;;;;;;;;;;;;;;;5139045;27;20373;-44
2022/04/21 01:57:48;;;;;;;;;;;;;;;;;;5139671;27;19931;-43
2022/04/21 02:00:13;;;;;;;;;;;;;;;;;;5139261;27;19912;-43
2022/04/21 02:02:39;;;;;;;;;;;;;;;;;;5139267;27;20346;-44
2022/04/21 02:05:04;;;;;;;;;;;;;;;;;;5139449;27;19927;-43
2022/04/21 02:07:29;;;;;;;;;;;;;;;;;;5139528;27;19911;-43
2022/04/21 02:09:54;;;;;;;;;;;;;;;;;;5139848;27;19962;-44
2022/04/21 02:12:21;;;;;;;;;;;;;;;;;;5121013;27;19923;-44
2022/04/21 02:14:46;;;;;;;;;;;;;;;;;;5118856;28;20044;-44
2022/04/21 02:17:11;;;;;;;;;;;;;;;;;;5118909;28;20392;-44
2022/04/21 02:19:36;;;;;;;;;;;;;;;;;;5118573;28;20028;-45
2022/04/21 02:22:01;;;;;;;;;;;;;;;;;;5118712;28;20016;-43
2022/04/21 02:24:26;;;;;;;;;;;;;;;;;;5118287;28;19951;-43
2022/04/21 02:26:51;;;;;;;;;;;;;;;;;;5129626;27;19911;-44
2022/04/21 02:29:16;;;;;;;;;;;;;;;;;;5138679;27;19915;-43
2022/04/21 02:31:41;;;;;;;;;;;;;;;;;;5138872;27;19908;-43
2022/04/21 02:34:07;;;;;;;;;;;;;;;;;;5138898;27;19907;-43
2022/04/21 02:36:32;;;;;;;;;;;;;;;;;;5138942;27;20363;-44
2022/04/21 02:38:57;;;;;;;;;;;;;;;;;;5120698;27;19908;-43
2022/04/21 02:41:22;;;;;;;;;;;;;;;;;;5138744;27;19915;-43
2022/04/21 02:43:47;;;;;;;;;;;;;;;;;;5138738;27;19907;-44
2022/04/21 02:46:13;;;;;;;;;;;;;;;;;;5138943;27;19907;-45
2022/04/21 02:48:38;;;;;;;;;;;;;;;;;;5138861;27;19911;-44
2022/04/21 02:51:03;;;;;;;;;;;;;;;;;;5120421;27;20424;-44
2022/04/21 02:59:00;;;;;;;;;;;;;;;;;;5117963;28;20012;-44
2022/04/21 03:01:25;;;;;;;;;;;;;;;;;;5118006;28;19908;-44
2022/04/21 03:03:50;;;;;;;;;;;;;;;;;;5117808;28;19907;-44
2022/04/21 03:06:15;;;;;;;;;;;;;;;;;;5117597;28;19918;-43
2022/04/21 03:08:40;;;;;;;;;;;;;;;;;;5117855;28;20354;-43
2022/04/21 03:11:05;;;;;;;;;;;;;;;;;;5117522;28;20304;-43
2022/04/21 03:13:31;;;;;;;;;;;;;;;;;;5117430;28;19908;-44
2022/04/21 03:15:56;;;;;;;;;;;;;;;;;;5117632;28;19951;-43
2022/04/21 03:18:21;;;;;;;;;;;;;;;;;;5117799;28;19908;-43
2022/04/21 03:26:17;;;;;;;;;;;;;;;;;;5116970;28;19935;-42
2022/04/21 03:28:42;;;;;;;;;;;;;;;;;;5117054;28;20010;-43
2022/04/21 03:31:08;;;;;;;;;;;;;;;;;;5117516;28;19938;-45
2022/04/21 03:33:33;;;;;;;;;;;;;;;;;;5117309;28;19912;-44
2022/04/21 03:35:58;;;;;;;;;;;;;;;;;;5117458;28;19933;-43
2022/04/21 03:38:23;;;;;;;;;;;;;;;;;;5117135;28;19908;-44
2022/04/21 03:40:48;;;;;;;;;;;;;;;;;;5117134;28;19908;-44
2022/04/21 03:43:13;;;;;;;;;;;;;;;;;;5117365;28;20334;-43
2022/04/21 03:45:38;;;;;;;;;;;;;;;;;;5117197;28;20339;-43
2022/04/21 03:48:03;;;;;;;;;;;;;;;;;;5117559;28;19998;-42
2022/04/21 03:50:31;;;;;;;;;;;;;;;;;;5117139;28;19995;-42
2022/04/21 03:52:56;;;;;;;;;;;;;;;;;;5116995;28;20004;-43
2022/04/21 03:55:21;;;;;;;;;;;;;;;;;;5127214;27;19953;-43
2022/04/21 03:57:46;;;;;;;;;;;;;;;;;;5137459;27;19939;-43
2022/04/21 04:00:12;;;;;;;;;;;;;;;;;;5137416;27;19915;-43
2022/04/21 04:02:37;;;;;;;;;;;;;;;;;;5137102;27;20016;-43
2022/04/21 04:05:02;;;;;;;;;;;;;;;;;;5137173;27;19934;-43
2022/04/21 04:12:55;;;;;;;;;;;;;;;;;;5137269;27;19914;-43
2022/04/21 04:15:21;;;;;;;;;;;;;;;;;;5137075;27;19994;-43
2022/04/21 04:17:46;;;;;;;;;;;;;;;;;;5137239;27;19915;-43
2022/04/21 04:20:12;;;;;;;;;;;;;;;;;;5137232;27;19908;-43
2022/04/21 04:22:37;;;;;;;;;;;;;;;;;;5136912;27;19914;-44
2022/04/21 04:25:02;;;;;;;;;;;;;;;;;;5136227;27;19919;-43
2022/04/21 04:27:28;;;;;;;;;;;;;;;;;;5136650;27;19911;-42
2022/04/21 04:29:53;;;;;;;;;;;;;;;;;;5136979;27;20351;-43
2022/04/21 04:32:18;;;;;;;;;;;;;;;;;;5137156;27;20289;-42
2022/04/21 04:34:43;;;;;;;;;;;;;;;;;;5136809;27;19967;-42
2022/04/21 04:37:08;;;;;;;;;;;;;;;;;;5118435;27;19960;-42
2022/04/21 04:39:33;;;;;;;;;;;;;;;;;;5136737;27;19915;-43
2022/04/21 04:42:17;;;;;;;;;;;;;;;;;;5136628;27;19908;-45
2022/04/21 04:44:42;;;;;;;;;;;;;;;;;;5136562;27;19908;-43
2022/04/21 04:47:07;;;;;;;;;;;;;;;;;;5136968;27;19907;-43
2022/04/21 04:49:32;;;;;;;;;;;;;;;;;;5136261;27;19912;-43
2022/04/21 04:51:57;;;;;;;;;;;;;;;;;;5136428;27;19995;-43
2022/04/21 04:54:22;;;;;;;;;;;;;;;;;;5136234;27;19954;-43
2022/04/21 04:56:48;;;;;;;;;;;;;;;;;;5136090;27;19942;-43
2022/04/21 04:59:13;;;;;;;;;;;;;;;;;;5136372;27;19945;-44
2022/04/21 05:01:41;;;;;;;;;;;;;;;;;;5136538;27;19912;-43
2022/04/21 05:04:06;;;;;;;;;;;;;;;;;;5136667;27;20323;-42
2022/04/21 05:06:32;;;;;;;;;;;;;;;;;;5136162;27;20401;-43
2022/04/21 05:08:57;;;;;;;;;;;;;;;;;;5136204;27;19911;-43
2022/04/21 05:11:22;;;;;;;;;;;;;;;;;;5136411;27;19907;-43
2022/04/21 05:13:47;;;;;;;;;;;;;;;;;;5136242;27;20362;-43
2022/04/21 05:16:13;;;;;;;;;;;;;;;;;;5136060;27;19926;-44
2022/04/21 05:18:38;;;;;;;;;;;;;;;;;;5136055;27;19907;-43
2022/04/21 05:21:03;;;;;;;;;;;;;;;;;;5135760;27;19904;-44
2022/04/21 05:23:28;;;;;;;;;;;;;;;;;;5124330;27;19916;-43
2022/04/21 05:25:53;;;;;;;;;;;;;;;;;;5109421;28;19924;-43
2022/04/21 05:28:18;;;;;;;;;;;;;;;;;;5098099;28;19924;-43
2022/04/21 05:30:55;;;;;;;;;;;;;;;;;;5093970;28;19961;-44
2022/04/21 05:33:20;;;;;;;;;;;;;;;;;;5096108;28;20354;-46
2022/04/21 05:35:45;;;;;;;;;;;;;;;;;;5104949;28;19980;-46
2022/04/21 05:38:10;;;;;;;;;;;;;;;;;;5107171;28;19971;-46
2022/04/21 05:40:36;;;;;;;;;;;;;;;;;;5107878;28;19912;-47
2022/04/21 05:43:01;;;;;;;;;;;;;;;;;;5115568;28;19916;-46
2022/04/21 05:45:27;;;;;;;;;;;;;;;;;;5098012;28;20003;-47
2022/04/21 05:47:52;;;;;;;;;;;;;;;;;;5112555;28;19953;-47
2022/04/21 05:50:17;;;;;;;;;;;;;;;;;;5103194;28;19926;-45
2022/04/21 05:52:42;;;;;;;;;;;;;;;;;;5119490;28;19912;-45
2022/04/21 05:55:07;;;;;;;;;;;;;;;;;;5108735;28;19947;-46
2022/04/21 05:57:35;;;;;;;;;;;;;;;;;;5098984;28;19958;-47
2022/04/21 06:00:00;;;;;;;;;;;;;;;;;;5075904;28;20017;-48
2022/04/21 06:02:25;;;;;;;;;;;;;;;;;;5095538;28;20378;-48
2022/04/21 06:04:50;;;;;;;;;;;;;;;;;;5100187;28;20365;-47
2022/04/21 06:07:15;;;;;;;;;;;;;;;;;;5077306;28;19926;-46
2022/04/21 06:09:41;;;;;;;;;;;;;;;;;;5071082;28;19934;-48
2022/04/21 06:12:06;;;;;;;;;;;;;;;;;;5068331;28;19920;-46
2022/04/21 06:14:31;;;;;;;;;;;;;;;;;;5072668;28;20966;-47
2022/04/21 06:16:58;;;;;;;;;;;;;;;;;;5074989;28;21088;-47
2022/04/21 06:19:23;;;;;;;;;;;;;;;;;;5031884;28;19919;-46
2022/04/21 06:21:48;;;;;;;;;;;;;;;;;;5012166;28;20557;-46
2022/04/21 06:24:13;;;;;;;;;;;;;;;;;;4959590;28;22032;-47
2022/04/21 06:26:42;;;;;;;;;;;;;;;;;;4883243;28;21118;-46
2022/04/21 06:29:07;;;;;;;;;;;;;;;;;;4837429;27;21235;-58
2022/04/21 06:31:36;;;;;;;;;;;;;;;;;;4889178;27;19920;-46
2022/04/21 06:34:01;;;;;;;;;;;;;;;;;;4907202;27;21862;-45
2022/04/21 06:36:26;;;;;;;;;;;;;;;;;;4980873;27;20675;-46
2022/04/21 06:38:52;;;;;;;;;;;;;;;;;;4977494;27;19926;-47
2022/04/21 06:41:17;;;;;;;;;;;;;;;;;;4992378;27;20659;-46
2022/04/21 06:49:10;;;;;;;;;;;;;;;;;;5015744;27;20008;-47
2022/04/21 06:51:35;;;;;;;;;;;;;;;;;;4943293;27;19935;-48
2022/04/21 06:54:00;;;;;;;;;;;;;;;;;;4946140;28;21252;-47
2022/04/21 06:56:25;;;;;;;;;;;;;;;;;;4945089;28;20013;-47
2022/04/21 06:58:50;;;;;;;;;;;;;;;;;;4936682;27;21430;-46
2022/04/21 07:01:15;;;;;;;;;;;;;;;;;;4915725;27;22432;-46
2022/04/21 07:03:40;;;;;;;;;;;;;;;;;;4898690;27;19920;-46
2022/04/21 07:06:06;;;;;;;;;;;;;;;;;;4864702;27;19920;-46
2022/04/21 07:08:31;;;;;;;;;;;;;;;;;;4871061;27;20644;-46
2022/04/21 07:10:56;;;;;;;;;;;;;;;;;;4878076;27;20571;-46
2022/04/21 07:13:21;;;;;;;;;;;;;;;;;;4866554;27;21354;-47
2022/04/21 07:15:46;;;;;;;;;;;;;;;;;;4797479;27;19919;-46
2022/04/21 07:18:12;;;;;;;;;;;;;;;;;;4754322;27;22474;-47
2022/04/21 07:20:37;;;;;;;;;;;;;;;;;;4743038;27;20711;-46
2022/04/21 07:23:02;;;;;;;;;;;;;;;;;;4681021;28;24094;-48
2022/04/21 07:25:27;;;;;;;;;;;;;;;;;;4712916;28;22145;-48
2022/04/21 07:27:53;;;;;;;;;;;;;;;;;;4840430;27;19919;-46
2022/04/21 07:30:18;;;;;;;;;;;;;;;;;;4799822;27;20386;-48
2022/04/21 07:32:44;;;;;;;;;;;;;;;;;;4804197;27;25474;-47
2022/04/21 07:35:09;;;;;;;;;;;;;;;;;;4852985;27;20653;-46
2022/04/21 07:37:37;;;;;;;;;;;;;;;;;;4860650;28;22683;-45
2022/04/21 07:40:02;;;;;;;;;;;;;;;;;;4843882;27;25982;-48
2022/04/21 07:42:28;;;;;;;;;;;;;;;;;;4794099;27;27989;-47
2022/04/21 07:44:53;;;;;;;;;;;;;;;;;;4815118;27;20652;-47
2022/04/21 07:47:18;;;;;;;;;;;;;;;;;;4806226;28;20684;-48
2022/04/21 07:49:46;;;;;;;;;;;;;;;;;;4818087;27;20368;-47
2022/04/21 07:54:55;;;;;;;;;;;;;;;;;;4792033;27;27146;-48
2022/04/21 07:57:20;;;;;;;;;;;;;;;;;;4831105;27;24291;-50
2022/04/21 07:59:45;;;;;;;;;;;;;;;;;;4848218;27;22475;-48
2022/04/21 08:02:11;;;;;;;;;;;;;;;;;;4828161;28;25983;-49
2022/04/21 08:04:40;;;;;;;;;;;;;;;;;;4843219;27;27742;-48
2022/04/21 08:07:05;;;;;;;;;;;;;;;;;;4845998;27;27405;-48
2022/04/21 08:09:30;;;;;;;;;;;;;;;;;;4818993;27;24295;-45
2022/04/21 08:11:56;;;;;;;;;;;;;;;;;;4724740;27;19920;-46
2022/04/21 08:14:21;;;;;;;;;;;;;;;;;;4667732;27;21923;-47
2022/04/21 08:16:46;;;;;;;;;;;;;;;;;;4785918;27;19920;-49
2022/04/21 08:19:11;;;;;;;;;;;;;;;;;;4776691;27;22993;-47
2022/04/21 08:21:37;;;;;;;;;;;;;;;;;;4821449;27;21693;-47
2022/04/21 08:32:33;;;;;;;;;;;;;;;;;;4812839;27;22834;-48
2022/04/21 08:32:37;;;;;;;;;;;;;;;;;;4683173;27;22377;-50
2022/04/21 08:35:02;;;;;;;;;;;;;;;;;;4749417;28;20791;-49
2022/04/21 08:37:27;;;;;;;;;;;;;;;;;;4809772;28;22182;-48
2022/04/21 08:39:53;;;;;;;;;;;;;;;;;;4870032;27;21459;-48
2022/04/21 08:42:18;;;;;;;;;;;;;;;;;;4872824;28;19959;-48
2022/04/21 08:44:43;;;;;;;;;;;;;;;;;;4855517;27;20632;-48
2022/04/21 08:47:08;;;;;;;;;;;;;;;;;;4896677;27;19942;-48
2022/04/21 08:49:34;;;;;;;;;;;;;;;;;;4852769;27;21531;-48
2022/04/21 08:52:00;;;;;;;;;;;;;;;;;;4867839;28;19923;-48
2022/04/21 08:54:25;;;;;;;;;;;;;;;;;;4871252;28;21294;-48
2022/04/21 08:56:50;;;;;;;;;;;;;;;;;;4904766;27;23522;-47
2022/04/21 08:59:16;;;;;;;;;;;;;;;;;;4877923;27;20050;-48
2022/04/21 09:01:41;;;;;;;;;;;;;;;;;;4820049;28;21712;-48
2022/04/21 09:04:07;;;;;;;;;;;;;;;;;;4825617;27;22316;-48
2022/04/21 09:06:32;;;;;;;;;;;;;;;;;;4809193;28;26416;-48
2022/04/21 09:08:57;;;;;;;;;;;;;;;;;;4812341;27;19925;-49
2022/04/21 09:11:22;;;;;;;;;;;;;;;;;;4854473;27;20574;-48
2022/04/21 09:13:47;;;;;;;;;;;;;;;;;;4808011;28;32092;-49
2022/04/21 09:16:13;;;;;;;;;;;;;;;;;;4826327;28;22611;-48
2022/04/21 09:18:38;;;;;;;;;;;;;;;;;;4792157;28;25448;-48
2022/04/21 09:21:03;;;;;;;;;;;;;;;;;;4686032;27;22222;-46
2022/04/21 09:23:28;;;;;;;;;;;;;;;;;;4667151;28;19957;-49
2022/04/21 09:25:53;;;;;;;;;;;;;;;;;;4669210;28;20427;-49
2022/04/21 09:28:18;;;;;;;;;;;;;;;;;;4744539;28;24080;-47
2022/04/21 09:30:43;;;;;;;;;;;;;;;;;;4790860;28;25639;-48
2022/04/21 09:33:08;;;;;;;;;;;;;;;;;;4765228;28;21197;-48
2022/04/21 09:35:37;;;;;;;;;;;;;;;;;;4861107;28;22864;-52
2022/04/21 09:38:05;;;;;;;;;;;;;;;;;;4862284;28;20020;-48
2022/04/21 09:40:32;;;;;;;;;;;;;;;;;;4877835;28;20652;-48
2022/04/21 09:42:57;;;;;;;;;;;;;;;;;;4857437;28;19920;-49
2022/04/21 09:48:06;;;;;;;;;;;;;;;;;;4852595;28;20012;-49
2022/04/21 09:50:31;;;;;;;;;;;;;;;;;;4830044;28;21731;-49
2022/04/21 09:52:57;;;;;;;;;;;;;;;;;;4828825;28;22239;-48
2022/04/21 09:55:22;;;;;;;;;;;;;;;;;;4794652;28;25393;-48
2022/04/21 09:57:47;;;;;;;;;;;;;;;;;;4804480;28;22127;-46
2022/04/21 10:00:12;;;;;;;;;;;;;;;;;;4730963;28;24360;-49
2022/04/21 10:02:38;;;;;;;;;;;;;;;;;;4743025;28;19920;-49
2022/04/21 10:05:03;;;;;;;;;;;;;;;;;;4756363;27;22913;-48
2022/04/21 10:07:28;;;;;;;;;;;;;;;;;;4778900;27;21172;-48
2022/04/21 10:09:54;;;;;;;;;;;;;;;;;;4730169;27;21860;-48
2022/04/21 10:12:19;;;;;;;;;;;;;;;;;;4586671;27;20926;-47
2022/04/21 10:14:44;;;;;;;;;;;;;;;;;;4650786;27;19920;-47
2022/04/21 10:17:10;;;;;;;;;;;;;;;;;;4671180;27;28828;-48
2022/04/21 10:19:35;;;;;;;;;;;;;;;;;;4717601;28;20246;-48
2022/04/21 10:22:02;;;;;;;;;;;;;;;;;;4784381;28;32097;-48
2022/04/21 10:24:27;;;;;;;;;;;;;;;;;;4788931;27;19997;-47
2022/04/21 10:26:52;;;;;;;;;;;;;;;;;;4799347;28;26789;-47
2022/04/21 10:29:23;;;;;;;;;;;;;;;;;;4803961;28;29014;-46
2022/04/21 10:31:48;;;;;;;;;;;;;;;;;;4736540;28;27979;-45
2022/04/21 10:34:14;;;;;;;;;;;;;;;;;;4730075;28;28365;-48
2022/04/21 10:36:41;;;;;;;;;;;;;;;;;;4700524;28;20350;-49
2022/04/21 10:39:06;;;;;;;;;;;;;;;;;;4692007;28;20046;-48
2022/04/21 10:41:31;;;;;;;;;;;;;;;;;;4699434;28;29805;-48
2022/04/21 10:43:56;;;;;;;;;;;;;;;;;;4749941;28;22528;-49
2022/04/21 10:46:22;;;;;;;;;;;;;;;;;;4764677;28;23657;-49
2022/04/21 10:48:47;;;;;;;;;;;;;;;;;;4765034;28;21217;-48
2022/04/21 10:51:12;;;;;;;;;;;;;;;;;;4782303;28;23301;-48
2022/04/21 10:59:05;;;;;;;;;;;;;;;;;;4607652;28;23989;-48
2022/04/21 11:01:31;;;;;;;;;;;;;;;;;;4668784;28;23941;-48
2022/04/21 11:03:57;;;;;;;;;;;;;;;;;;4763747;28;20097;-49
2022/04/21 11:06:22;;;;;;;;;;;;;;;;;;4646581;28;21311;-48
2022/04/21 11:08:47;;;;;;;;;;;;;;;;;;4779387;28;20237;-48
2022/04/21 11:11:13;;;;;;;;;;;;;;;;;;4779969;28;20506;-48
2022/04/21 11:13:38;;;;;;;;;;;;;;;;;;4790968;28;23327;-48
2022/04/21 11:16:03;;;;;;;;;;;;;;;;;;4808060;28;20554;-48
2022/04/21 11:18:29;;;;;;;;;;;;;;;;;;4787138;28;22788;-49
2022/04/21 11:20:54;;;;;;;;;;;;;;;;;;4806220;28;23600;-47
2022/04/21 11:23:19;;;;;;;;;;;;;;;;;;4803511;28;24112;-48
2022/04/21 11:25:44;;;;;;;;;;;;;;;;;;4775851;28;19928;-47
2022/04/21 11:28:09;;;;;;;;;;;;;;;;;;4771773;28;20630;-47
2022/04/21 11:30:34;;;;;;;;;;;;;;;;;;4688105;27;21189;-54
2022/04/21 11:33:00;;;;;;;;;;;;;;;;;;4648717;27;36423;-48
2022/04/21 11:35:25;;;;;;;;;;;;;;;;;;4733314;28;27329;-48
2022/04/21 11:37:50;;;;;;;;;;;;;;;;;;4807751;27;26427;-44
2022/04/21 11:40:15;;;;;;;;;;;;;;;;;;4863939;27;28434;-48
2022/04/21 11:42:40;;;;;;;;;;;;;;;;;;4870434;27;21276;-50
2022/04/21 11:45:05;;;;;;;;;;;;;;;;;;4847994;27;21593;-47
2022/04/21 11:47:31;;;;;;;;;;;;;;;;;;4843067;27;26339;-49
2022/04/21 11:49:56;;;;;;;;;;;;;;;;;;4855857;27;22216;-49
2022/04/21 11:52:21;;;;;;;;;;;;;;;;;;4856256;28;20492;-48
2022/04/21 11:54:46;;;;;;;;;;;;;;;;;;4861356;27;20362;-47
2022/04/21 11:57:11;;;;;;;;;;;;;;;;;;4864698;27;20631;-46
2022/04/21 11:59:38;;;;;;;;;;;;;;;;;;4891702;27;20702;-47
2022/04/21 12:07:30;;;;;;;;;;;;;;;;;;4870544;28;20759;-47
2022/04/21 12:09:56;;;;;;;;;;;;;;;;;;4868186;27;19924;-47
2022/04/21 12:12:21;;;;;;;;;;;;;;;;;;4827407;28;19929;-48
2022/04/21 12:14:46;;;;;;;;;;;;;;;;;;4836222;27;20559;-46
2022/04/21 12:17:12;;;;;;;;;;;;;;;;;;4813286;27;19919;-47
2022/04/21 12:19:40;;;;;;;;;;;;;;;;;;4780458;27;20274;-47
2022/04/21 12:22:07;;;;;;;;;;;;;;;;;;4784099;27;37042;-50
2022/04/21 12:24:32;;;;;;;;;;;;;;;;;;4813251;27;23619;-47
2022/04/21 12:26:57;;;;;;;;;;;;;;;;;;4834572;22;29741;-48
2022/04/21 12:29:22;;;;;;;;;;;;;;;;;;4906866;28;20134;-47
2022/04/21 12:31:47;;;;;;;;;;;;;;;;;;4896312;28;21313;-46
2022/04/21 12:34:12;;;;;;;;;;;;;;;;;;4889873;28;19924;-47
2022/04/21 12:36:38;;;;;;;;;;;;;;;;;;4858874;28;21026;-46
2022/04/21 12:39:03;;;;;;;;;;;;;;;;;;4851896;28;20905;-47
2022/04/21 12:41:28;;;;;;;;;;;;;;;;;;4912529;28;24871;-47
2022/04/21 12:43:53;;;;;;;;;;;;;;;;;;4903514;28;19920;-48
2022/04/21 12:46:18;;;;;;;;;;;;;;;;;;4861354;28;21086;-46
2022/04/21 12:48:44;;;;;;;;;;;;;;;;;;4887757;28;21917;-47
2022/04/21 12:51:09;;;;;;;;;;;;;;;;;;4858014;28;19928;-48
2022/04/21 12:53:36;;;;;;;;;;;;;;;;;;4874014;28;21264;-48
2022/04/21 12:56:01;;;;;;;;;;;;;;;;;;4907402;28;20596;-45
2022/04/21 12:58:26;;;;;;;;;;;;;;;;;;4887317;28;20791;-47
2022/04/21 13:00:51;;;;;;;;;;;;;;;;;;4892958;28;19920;-48
2022/04/21 13:03:16;;;;;;;;;;;;;;;;;;4869039;28;39354;-45
2022/04/21 13:05:42;;;;;;;;;;;;;;;;;;4890032;28;20665;-48
2022/04/21 13:08:07;;;;;;;;;;;;;;;;;;4867076;28;30237;-45
2022/04/21 13:10:32;;;;;;;;;;;;;;;;;;4885598;28;19927;-47
2022/04/21 13:12:57;;;;;;;;;;;;;;;;;;4851269;28;19965;-48
2022/04/21 13:15:22;;;;;;;;;;;;;;;;;;4913018;28;19927;-46
2022/04/21 13:17:47;;;;;;;;;;;;;;;;;;4945398;28;21265;-47
2022/04/21 13:21:52;;;;;;;;;;;;;;;;;;4989812;28;19928;-46
2022/04/21 13:22:57;;;;;;;;;;;;;;;;;;4973132;28;19916;-47
2022/04/21 13:25:23;;;;;;;;;;;;;;;;;;5026249;28;23416;-46
2022/04/21 13:27:48;;;;;;;;;;;;;;;;;;5024564;27;22128;-48
2022/04/21 13:30:13;;;;;;;;;;;;;;;;;;5014035;28;22160;-46
2022/04/21 13:35:22;;;;;;;;;;;;;;;;;;5019521;28;19978;-47
2022/04/21 13:37:47;;;;;;;;;;;;;;;;;;5024447;28;19920;-47
2022/04/21 13:40:12;;;;;;;;;;;;;;;;;;5029713;28;20253;-47
2022/04/21 13:42:38;;;;;;;;;;;;;;;;;;5022346;28;19920;-45
2022/04/21 13:45:03;;;;;;;;;;;;;;;;;;5016046;28;21915;-48
2022/04/21 13:47:28;;;;;;;;;;;;;;;;;;4981741;28;19920;-48
2022/04/21 13:49:53;;;;;;;;;;;;;;;;;;5035648;28;19923;-47
2022/04/21 13:52:18;;;;;;;;;;;;;;;;;;5004473;28;20016;-47
2022/04/21 13:54:44;;;;;;;;;;;;;;;;;;5003492;28;19926;-47
2022/04/21 13:57:09;;;;;;;;;;;;;;;;;;4999564;28;19919;-47
2022/04/21 13:59:35;;;;;;;;;;;;;;;;;;4967058;28;20030;-47
2022/04/21 14:02:00;;;;;;;;;;;;;;;;;;4992874;28;20137;-45
2022/04/21 14:04:25;;;;;;;;;;;;;;;;;;4957176;28;19963;-47
2022/04/21 14:06:52;;;;;;;;;;;;;;;;;;5007506;28;20704;-47
2022/04/21 14:09:17;;;;;;;;;;;;;;;;;;5031668;28;21438;-47
2022/04/21 14:11:42;;;;;;;;;;;;;;;;;;5038300;28;19920;-48
2022/04/21 14:14:07;;;;;;;;;;;;;;;;;;5048964;28;19927;-47
2022/04/21 14:16:33;;;;;;;;;;;;;;;;;;5042992;28;20702;-45
2022/04/21 14:18:58;;;;;;;;;;;;;;;;;;5053072;28;20599;-47
2022/04/21 14:21:24;;;;;;;;;;;;;;;;;;5055411;28;19920;-47
2022/04/21 14:23:49;;;;;;;;;;;;;;;;;;5058692;28;19919;-46
2022/04/21 14:26:14;;;;;;;;;;;;;;;;;;5053929;28;21612;-46
2022/04/21 14:28:39;;;;;;;;;;;;;;;;;;5074419;28;19928;-45
2022/04/21 14:31:04;;;;;;;;;;;;;;;;;;5065850;28;21790;-46
2022/04/21 14:33:29;;;;;;;;;;;;;;;;;;5067150;28;19921;-48
2022/04/21 14:35:54;;;;;;;;;;;;;;;;;;5076622;28;19920;-47
2022/04/21 14:46:33;;;;;;;;;;;;;;;;;;5070768;28;19926;-50
2022/04/21 14:48:58;;;;;;;;;;;;;;;;;;5071776;28;20372;-46
2022/04/21 14:51:23;;;;;;;;;;;;;;;;;;5059509;27;20082;-47
2022/04/21 14:53:48;;;;;;;;;;;;;;;;;;5021838;28;19943;-47
2022/04/21 14:56:13;;;;;;;;;;;;;;;;;;5017778;28;19920;-46
2022/04/21 14:58:38;;;;;;;;;;;;;;;;;;5043193;27;20007;-46
2022/04/21 15:01:03;;;;;;;;;;;;;;;;;;5072570;27;19919;-47
2022/04/21 15:03:29;;;;;;;;;;;;;;;;;;5090588;27;20002;-46
2022/04/21 15:05:54;;;;;;;;;;;;;;;;;;5090843;28;20597;-46
2022/04/21 15:08:19;;;;;;;;;;;;;;;;;;5089747;28;19919;-47
2022/04/21 15:10:45;;;;;;;;;;;;;;;;;;5095104;28;19923;-47
2022/04/21 15:13:10;;;;;;;;;;;;;;;;;;5103095;28;19998;-46
2022/04/21 15:15:35;;;;;;;;;;;;;;;;;;5102782;28;19942;-47
2022/04/21 15:18:00;;;;;;;;;;;;;;;;;;5105607;28;20409;-48
2022/04/21 15:20:25;;;;;;;;;;;;;;;;;;5109272;28;19918;-47
2022/04/21 15:22:50;;;;;;;;;;;;;;;;;;5103020;28;19912;-47
2022/04/21 15:25:16;;;;;;;;;;;;;;;;;;5115882;28;20381;-47
2022/04/21 15:27:41;;;;;;;;;;;;;;;;;;5107213;28;20376;-45
2022/04/21 15:30:06;;;;;;;;;;;;;;;;;;5096267;28;19920;-49
2022/04/21 15:32:31;;;;;;;;;;;;;;;;;;5107608;28;19918;-47
2022/04/21 15:34:56;;;;;;;;;;;;;;;;;;5114296;28;20006;-45
2022/04/21 15:37:21;;;;;;;;;;;;;;;;;;5103701;28;19912;-46
2022/04/21 15:39:48;;;;;;;;;;;;;;;;;;5108563;28;19919;-47
2022/04/21 15:42:13;;;;;;;;;;;;;;;;;;5105956;28;19919;-46
2022/04/21 15:44:38;;;;;;;;;;;;;;;;;;5109601;28;19911;-47
2022/04/21 15:47:03;;;;;;;;;;;;;;;;;;5115193;28;19920;-48
2022/04/21 15:49:28;;;;;;;;;;;;;;;;;;5109692;28;19923;-46
2022/04/21 15:51:54;;;;;;;;;;;;;;;;;;5115002;28;19912;-47
2022/04/21 15:59:47;;;;;;;;;;;;;;;;;;5118618;28;19919;-45
2022/04/21 16:02:12;;;;;;;;;;;;;;;;;;5116719;28;19916;-45
2022/04/21 16:04:37;;;;;;;;;;;;;;;;;;5116242;28;19918;-42
2022/04/21 16:07:02;;;;;;;;;;;;;;;;;;5116516;28;20216;-43
2022/04/21 16:09:28;;;;;;;;;;;;;;;;;;5116183;28;20346;-43
2022/04/21 16:11:53;;;;;;;;;;;;;;;;;;5112706;28;20290;-43
2022/04/21 16:14:18;;;;;;;;;;;;;;;;;;5109167;28;19918;-44
2022/04/21 16:16:43;;;;;;;;;;;;;;;;;;5115944;28;19933;-43
2022/04/21 16:19:08;;;;;;;;;;;;;;;;;;5116074;28;19931;-45
2022/04/21 16:21:33;;;;;;;;;;;;;;;;;;5115899;28;19907;-45
2022/04/21 16:23:58;;;;;;;;;;;;;;;;;;5110729;28;19912;-44
2022/04/21 16:26:23;;;;;;;;;;;;;;;;;;5112336;28;19923;-44
2022/04/21 16:28:50;;;;;;;;;;;;;;;;;;5114417;28;19920;-44
2022/04/21 16:31:15;;;;;;;;;;;;;;;;;;5115956;28;19931;-44
2022/04/21 16:33:40;;;;;;;;;;;;;;;;;;5115831;28;19908;-44
2022/04/21 16:36:05;;;;;;;;;;;;;;;;;;5105589;28;19912;-44
2022/04/21 16:38:31;;;;;;;;;;;;;;;;;;5095535;28;19951;-44
2022/04/21 16:40:56;;;;;;;;;;;;;;;;;;5095660;28;19912;-44
2022/04/21 16:43:21;;;;;;;;;;;;;;;;;;5095303;28;19992;-44
2022/04/21 16:45:46;;;;;;;;;;;;;;;;;;5094751;28;19912;-43
2022/04/21 16:48:11;;;;;;;;;;;;;;;;;;5095283;28;19955;-44
2022/04/21 16:50:36;;;;;;;;;;;;;;;;;;5094932;28;20006;-44
2022/04/21 16:53:01;;;;;;;;;;;;;;;;;;5095158;28;19916;-44
2022/04/21 16:55:27;;;;;;;;;;;;;;;;;;5094876;28;19912;-44
2022/04/21 16:57:52;;;;;;;;;;;;;;;;;;5113709;28;19912;-43
2022/04/21 17:02:54;;;;;;;;;;;;;;;;;;5115333;28;19911;-45
2022/04/21 17:03:02;;;;;;;;;;;;;;;;;;5115300;28;19904;-44
2022/04/21 17:05:27;;;;;;;;;;;;;;;;;;5114927;28;20276;-44
2022/04/21 17:07:53;;;;;;;;;;;;;;;;;;5115420;28;20349;-45
2022/04/21 17:10:18;;;;;;;;;;;;;;;;;;5115271;28;19912;-45
2022/04/21 17:12:43;;;;;;;;;;;;;;;;;;5113878;28;19965;-45
2022/04/21 17:15:09;;;;;;;;;;;;;;;;;;5114611;28;19912;-45
2022/04/21 17:17:34;;;;;;;;;;;;;;;;;;5114944;28;19959;-44
2022/04/21 17:19:59;;;;;;;;;;;;;;;;;;5114809;28;19965;-44
2022/04/21 17:22:24;;;;;;;;;;;;;;;;;;5113250;28;19970;-44
2022/04/21 17:24:49;;;;;;;;;;;;;;;;;;5112435;28;19915;-44
2022/04/21 17:27:14;;;;;;;;;;;;;;;;;;5094588;28;20255;-45
2022/04/21 17:29:40;;;;;;;;;;;;;;;;;;5094467;28;19912;-44
2022/04/21 17:32:05;;;;;;;;;;;;;;;;;;5094547;28;19912;-44
2022/04/21 17:34:30;;;;;;;;;;;;;;;;;;5110996;28;20215;-44
2022/04/21 17:36:55;;;;;;;;;;;;;;;;;;5106755;28;20012;-43
2022/04/21 17:39:21;;;;;;;;;;;;;;;;;;5114724;28;19907;-43
2022/04/21 17:41:46;;;;;;;;;;;;;;;;;;5113429;28;20000;-44